createdAt,value
2023-01-09T00:01:45.968Z,-11.42
2023-01-09T00:04:13.840Z,-11.41
2023-01-09T00:17:18.666Z,-11.40
2023-01-09T00:19:51.400Z,-11.47
2023-01-09T00:22:20.073Z,-11.45
2023-01-09T00:24:49.782Z,-11.47
2023-01-09T00:27:17.678Z,-11.47
2023-01-09T00:29:47.809Z,-11.43
2023-01-09T00:32:17.313Z,-11.44
2023-01-09T00:34:45.191Z,-11.43
2023-01-09T00:37:15.547Z,-11.44
2023-01-09T00:39:44.259Z,-11.43
2023-01-09T00:42:17.572Z,-11.44
2023-01-09T00:44:56.340Z,-11.44
2023-01-09T00:47:30.797Z,-11.45
2023-01-09T00:50:00.996Z,-11.49
2023-01-09T00:52:31.431Z,-11.54
2023-01-09T00:54:59.815Z,-11.55
2023-01-09T00:57:28.126Z,-11.51
2023-01-09T00:59:55.959Z,-11.52
2023-01-09T01:02:26.336Z,-11.54
2023-01-09T01:05:13.007Z,-11.52
2023-01-09T01:07:43.431Z,-11.52
2023-01-09T01:10:30.085Z,-11.55
2023-01-09T01:12:57.961Z,-11.56
2023-01-09T01:15:29.586Z,-11.61
2023-01-09T01:17:58.069Z,-11.56
2023-01-09T01:20:25.915Z,-11.58
2023-01-09T01:22:53.778Z,-11.61
2023-01-09T01:25:21.702Z,-11.62
2023-01-09T01:27:49.760Z,-11.69
2023-01-09T01:30:17.908Z,-11.70
2023-01-09T01:32:46.026Z,-11.71
2023-01-09T01:35:13.848Z,-11.71
2023-01-09T01:37:42.166Z,-11.73
2023-01-09T01:40:10.744Z,-11.76
2023-01-09T01:42:46.396Z,-11.83
2023-01-09T01:45:19.943Z,-11.84
2023-01-09T01:48:03.661Z,-11.78
2023-01-09T01:50:41.635Z,-11.77
2023-01-09T01:53:14.263Z,-11.76
2023-01-09T01:55:45.802Z,-11.75
2023-01-09T01:58:14.874Z,-11.75
2023-01-09T02:00:44.798Z,-11.71
2023-01-09T02:03:12.914Z,-11.71
2023-01-09T02:05:40.786Z,-11.58
2023-01-09T02:08:08.690Z,-11.54
2023-01-09T02:10:37.602Z,-11.56
2023-01-09T02:13:06.784Z,-11.49
2023-01-09T02:15:49.523Z,-11.41
2023-01-09T02:18:24.726Z,-11.38
2023-01-09T02:20:59.757Z,-11.37
2023-01-09T02:23:44.171Z,-11.32
2023-01-09T02:26:52.251Z,-11.33
2023-01-09T02:29:38.916Z,-11.34
2023-01-09T02:32:28.001Z,-11.33
2023-01-09T02:35:11.067Z,-11.34
2023-01-09T02:37:57.410Z,-11.36
2023-01-09T02:40:38.849Z,-11.35
2023-01-09T02:43:06.624Z,-11.37
2023-01-09T02:45:34.572Z,-11.38
2023-01-09T02:48:02.622Z,-11.33
2023-01-09T02:55:26.297Z,-11.37
2023-01-09T02:58:22.939Z,-11.41
2023-01-09T03:00:56.634Z,-11.44
2023-01-09T03:03:31.985Z,-11.43
2023-01-09T03:06:17.167Z,-11.49
2023-01-09T03:08:47.907Z,-11.54
2023-01-09T03:11:17.472Z,-11.58
2023-01-09T03:13:46.643Z,-11.51
2023-01-09T03:16:17.216Z,-11.51
2023-01-09T03:18:44.845Z,-11.61
2023-01-09T03:21:13.050Z,-11.59
2023-01-09T03:23:47.564Z,-11.64
2023-01-09T03:26:15.313Z,-11.56
2023-01-09T03:28:43.129Z,-11.64
2023-01-09T03:31:10.996Z,-11.60
2023-01-09T03:33:39.426Z,-11.65
2023-01-09T03:36:07.634Z,-11.71
2023-01-09T03:38:35.533Z,-11.71
2023-01-09T03:41:03.575Z,-11.77
2023-01-09T03:43:31.348Z,-11.78
2023-01-09T03:45:59.337Z,-11.78
2023-01-09T03:48:27.379Z,-11.82
2023-01-09T03:50:55.384Z,-11.86
2023-01-09T03:53:25.873Z,-11.83
2023-01-09T03:55:54.928Z,-11.83
2023-01-09T03:58:23.298Z,-11.79
2023-01-09T04:00:51.487Z,-11.77
2023-01-09T04:03:20.416Z,-11.75
2023-01-09T04:05:48.735Z,-11.68
2023-01-09T04:08:16.762Z,-11.58
2023-01-09T04:10:45.884Z,-11.58
2023-01-09T04:13:30.806Z,-11.51
2023-01-09T04:16:00.222Z,-11.54
2023-01-09T04:18:29.603Z,-11.63
2023-01-09T04:20:57.700Z,-11.61
2023-01-09T04:23:25.542Z,-11.54
2023-01-09T04:25:53.642Z,-11.58
2023-01-09T04:28:21.560Z,-11.58
2023-01-09T04:30:49.240Z,-11.60
2023-01-09T04:33:16.935Z,-11.65
2023-01-09T04:35:44.773Z,-11.69
2023-01-09T04:38:12.669Z,-11.70
2023-01-09T04:40:40.312Z,-11.69
2023-01-09T04:43:09.498Z,-11.71
2023-01-09T04:45:37.315Z,-11.64
2023-01-09T04:48:05.473Z,-11.70
2023-01-09T04:50:34.390Z,-11.72
2023-01-09T04:53:02.294Z,-11.70
2023-01-09T04:55:30.298Z,-11.72
2023-01-09T04:57:58.473Z,-11.73
2023-01-09T05:00:26.200Z,-11.64
2023-01-09T05:02:53.957Z,-11.64
2023-01-09T05:05:22.520Z,-11.66
2023-01-09T05:07:50.741Z,-11.59
2023-01-09T05:10:18.663Z,-11.68
2023-01-09T05:12:46.823Z,-11.65
2023-01-09T05:15:14.645Z,-11.58
2023-01-09T05:17:43.478Z,-11.66
2023-01-09T05:20:11.832Z,-11.67
2023-01-09T05:22:39.825Z,-11.64
2023-01-09T05:25:07.885Z,-11.67
2023-01-09T05:27:39.902Z,-11.58
2023-01-09T05:30:08.556Z,-11.61
2023-01-09T05:32:36.264Z,-11.61
2023-01-09T05:35:04.219Z,-11.67
2023-01-09T05:37:32.527Z,-11.66
2023-01-09T05:40:00.394Z,-11.70
2023-01-09T05:42:28.245Z,-11.64
2023-01-09T05:44:56.328Z,-11.62
2023-01-09T05:47:24.116Z,-11.67
2023-01-09T05:49:52.379Z,-11.57
2023-01-09T05:52:20.296Z,-11.60
2023-01-09T05:54:48.047Z,-11.62
2023-01-09T05:57:17.334Z,-11.53
2023-01-09T05:59:45.071Z,-11.48
2023-01-09T06:02:13.081Z,-11.42
2023-01-09T06:04:40.911Z,-11.36
2023-01-09T06:07:08.660Z,-11.32
2023-01-09T06:09:36.568Z,-11.27
2023-01-09T06:12:04.496Z,-11.23
2023-01-09T06:14:32.430Z,-11.15
2023-01-09T06:17:00.852Z,-11.08
2023-01-09T06:19:28.598Z,-11.00
2023-01-09T06:21:56.602Z,-10.93
2023-01-09T06:24:24.335Z,-10.85
2023-01-09T06:26:52.679Z,-10.75
2023-01-09T06:29:20.547Z,-10.70
2023-01-09T06:31:48.220Z,-10.67
2023-01-09T06:34:16.040Z,-10.59
2023-01-09T06:36:43.710Z,-10.49
2023-01-09T06:39:14.296Z,-10.43
2023-01-09T06:41:41.950Z,-10.31
2023-01-09T06:44:09.515Z,-10.19
2023-01-09T06:46:37.085Z,-10.21
2023-01-09T06:49:04.725Z,-10.06
2023-01-09T06:51:32.489Z,-10.02
2023-01-09T06:54:02.699Z,-9.86
2023-01-09T06:56:30.384Z,-9.78
2023-01-09T06:58:57.992Z,-9.73
2023-01-09T07:01:25.799Z,-9.82
2023-01-09T07:03:53.468Z,-9.61
2023-01-09T07:06:21.095Z,-9.44
2023-01-09T07:08:49.519Z,-9.34
2023-01-09T07:11:17.068Z,-9.32
2023-01-09T09:11:03.759Z,-4.94
2023-01-09T09:13:34.285Z,-4.80
2023-01-09T09:16:07.763Z,-4.58
2023-01-09T09:18:36.826Z,-4.60
2023-01-09T09:24:05.259Z,-4.45
2023-01-09T09:26:35.264Z,-4.38
2023-01-09T09:29:03.049Z,-4.29
2023-01-09T09:43:43.449Z,-3.23
2023-01-09T09:46:26.265Z,-3.34
2023-01-09T09:48:57.356Z,-3.45
2023-01-09T09:52:02.644Z,-3.52
2023-01-09T09:54:40.499Z,-3.34
2023-01-09T09:57:11.783Z,-3.32
2023-01-09T09:59:39.530Z,-3.26
2023-01-09T10:02:10.246Z,-3.25
2023-01-09T10:04:43.182Z,-3.20
2023-01-09T10:07:17.145Z,-2.99
2023-01-09T10:09:54.885Z,-2.93
2023-01-09T10:12:27.357Z,-2.91
2023-01-09T10:14:57.067Z,-2.85
2023-01-09T10:17:35.274Z,-2.65
2023-01-09T10:20:25.035Z,-2.57
2023-01-09T10:23:17.192Z,-2.63
2023-01-09T10:25:46.087Z,-2.42
2023-01-09T10:28:37.920Z,-2.20
2023-01-09T10:31:11.598Z,-2.28
2023-01-09T10:34:11.554Z,-2.25
2023-01-09T10:36:51.107Z,-2.23
2023-01-09T10:39:21.562Z,-2.29
2023-01-09T10:42:00.470Z,-2.25
2023-01-09T10:44:37.325Z,-2.19
2023-01-09T10:47:09.469Z,-2.11
2023-01-09T10:49:37.717Z,-2.07
2023-01-09T10:52:18.295Z,-1.90
2023-01-09T10:54:56.624Z,-1.71
2023-01-09T10:57:38.770Z,-1.65
2023-01-09T11:00:08.025Z,-1.65
2023-01-09T11:02:36.281Z,-1.64
2023-01-09T11:05:04.231Z,-1.57
2023-01-09T11:07:35.031Z,-1.64
2023-01-09T11:10:03.813Z,-1.49
2023-01-09T11:12:33.637Z,-1.40
2023-01-09T11:15:16.680Z,-1.31
2023-01-09T11:17:44.746Z,-1.28
2023-01-09T11:20:22.550Z,-1.22
2023-01-09T11:22:51.409Z,-1.32
2023-01-09T11:25:20.341Z,-1.33
2023-01-09T11:28:09.541Z,-1.39
2023-01-09T11:30:37.797Z,-1.34
2023-01-09T11:33:16.111Z,-1.39
2023-01-09T11:36:13.275Z,-1.21
2023-01-09T11:39:15.290Z,-1.06
2023-01-09T11:41:42.938Z,-1.15
2023-01-09T11:44:11.068Z,-1.08
2023-01-09T11:46:41.076Z,-0.88
2023-01-09T11:49:14.773Z,-0.72
2023-01-09T11:51:42.708Z,-0.78
2023-01-09T11:54:45.100Z,-0.63
2023-01-09T11:57:12.716Z,-0.55
2023-01-09T11:59:40.273Z,-0.41
2023-01-09T12:02:19.916Z,-0.23
2023-01-09T12:04:56.301Z,-0.20
2023-01-09T12:07:39.170Z,-0.16
2023-01-09T12:10:11.294Z,-0.05
2023-01-09T12:12:55.037Z,0.16
2023-01-09T12:15:32.432Z,0.24
2023-01-09T12:18:08.705Z,0.22
2023-01-09T12:20:51.568Z,0.36
2023-01-09T12:23:30.640Z,0.31
2023-01-09T12:26:01.771Z,0.50
2023-01-09T12:28:38.269Z,0.35
2023-01-09T12:31:12.060Z,0.20
2023-01-09T12:34:01.437Z,0.60
2023-01-09T12:36:53.905Z,0.61
2023-01-09T12:40:06.141Z,0.46
2023-01-09T12:42:51.940Z,0.65
2023-01-09T12:45:56.220Z,0.82
2023-01-09T12:48:53.344Z,0.89
2023-01-09T12:51:20.944Z,0.93
2023-01-09T12:54:15.007Z,0.62
2023-01-09T12:56:45.890Z,0.16
2023-01-09T12:59:21.891Z,-0.04
2023-01-09T13:01:50.568Z,-0.12
2023-01-09T13:04:32.204Z,-0.56
2023-01-09T13:07:11.430Z,-0.71
2023-01-09T13:09:43.825Z,-0.92
2023-01-09T13:12:13.561Z,-1.11
2023-01-09T13:14:56.047Z,-1.29
2023-01-09T13:17:26.874Z,-1.37
2023-01-09T13:19:54.610Z,-1.42
2023-01-09T13:22:24.517Z,-1.59
2023-01-09T13:25:07.799Z,-1.65
2023-01-09T13:27:39.544Z,-1.64
2023-01-09T13:30:17.490Z,-1.80
2023-01-09T13:32:45.255Z,-1.86
2023-01-09T13:35:14.431Z,-1.87
2023-01-09T13:37:42.883Z,-1.79
2023-01-09T13:40:19.554Z,-2.05
2023-01-09T13:43:01.648Z,-1.98
2023-01-09T13:45:31.285Z,-1.98
2023-01-09T13:48:20.111Z,-2.11
2023-01-09T13:50:48.375Z,-2.10
2023-01-09T13:53:18.850Z,-2.07
2023-01-09T13:55:59.032Z,-2.17
2023-01-09T13:58:37.707Z,-2.26
2023-01-09T14:01:27.557Z,-2.30
2023-01-09T14:04:24.009Z,-2.33
2023-01-09T14:07:19.653Z,-2.34
2023-01-09T14:09:50.071Z,-2.35
2023-01-09T14:12:17.929Z,-2.38
2023-01-09T14:14:48.362Z,-2.52
2023-01-09T14:17:18.053Z,-2.56
2023-01-09T14:19:45.737Z,-2.63
2023-01-09T14:22:27.593Z,-2.62
2023-01-09T14:24:56.787Z,-2.69
2023-01-09T14:27:55.455Z,-2.78
2023-01-09T14:30:35.124Z,-2.87
2023-01-09T14:33:39.975Z,-2.93
2023-01-09T14:36:21.747Z,-2.96
2023-01-09T14:38:53.006Z,-3.07
2023-01-09T14:41:42.973Z,-3.15
2023-01-09T14:44:30.185Z,-3.21
2023-01-09T14:47:15.937Z,-3.15
2023-01-09T14:50:07.503Z,-3.22
2023-01-09T14:52:46.259Z,-3.24
2023-01-09T14:55:22.966Z,-3.27
2023-01-09T14:57:54.909Z,-3.26
2023-01-09T15:00:23.248Z,-3.38
2023-01-09T15:02:51.754Z,-3.37
2023-01-09T15:05:23.984Z,-3.41
2023-01-09T15:08:00.765Z,-3.48
2023-01-09T15:10:29.834Z,-3.49
2023-01-09T15:12:58.692Z,-3.48
2023-01-09T15:15:26.460Z,-3.44
2023-01-09T15:17:59.294Z,-3.41
2023-01-09T15:20:31.226Z,-3.57
2023-01-09T15:23:00.962Z,-3.54
2023-01-09T15:25:39.912Z,-3.44
2023-01-09T15:28:27.364Z,-3.50
2023-01-09T15:31:16.589Z,-3.47
2023-01-09T15:33:45.449Z,-3.54
2023-01-09T15:36:18.604Z,-3.57
2023-01-09T15:38:46.536Z,-3.44
2023-01-09T15:41:38.004Z,-3.68
2023-01-09T15:44:06.702Z,-3.57
2023-01-09T15:46:34.328Z,-3.51
2023-01-09T15:49:02.397Z,-3.58
2023-01-09T15:51:30.284Z,-3.54
2023-01-09T15:54:00.841Z,-3.53
2023-01-09T15:56:33.442Z,-3.52
2023-01-09T15:59:01.237Z,-3.56
2023-01-09T16:01:38.765Z,-3.60
2023-01-09T16:04:14.349Z,-3.59
2023-01-09T16:06:47.645Z,-3.60
2023-01-09T16:09:21.201Z,-3.62
2023-01-09T16:11:52.893Z,-3.65
2023-01-09T16:14:21.205Z,-3.75
2023-01-09T16:16:49.761Z,-3.80
2023-01-09T16:19:45.331Z,-3.68
2023-01-09T16:22:32.421Z,-3.80
2023-01-09T16:25:01.549Z,-3.82
2023-01-09T16:27:30.964Z,-3.82
2023-01-09T16:30:08.469Z,-3.95
2023-01-09T16:32:46.736Z,-4.01
2023-01-09T16:35:16.034Z,-4.08
2023-01-09T16:37:43.662Z,-4.14
2023-01-09T16:40:14.130Z,-4.17
2023-01-09T16:43:00.753Z,-4.15
2023-01-09T16:45:41.365Z,-4.28
2023-01-09T16:48:21.121Z,-4.36
2023-01-09T16:50:49.496Z,-4.33
2023-01-09T16:53:25.914Z,-4.37
2023-01-09T16:55:53.764Z,-4.48
2023-01-09T16:58:32.388Z,-4.46
2023-01-09T17:01:00.082Z,-4.59
2023-01-09T17:03:27.804Z,-4.60
2023-01-09T17:05:56.352Z,-4.68
2023-01-09T17:08:32.172Z,-4.73
2023-01-09T17:10:59.987Z,-4.78
2023-01-09T17:13:27.740Z,-4.75
2023-01-09T17:15:56.368Z,-4.77
2023-01-09T17:18:25.450Z,-4.83
2023-01-09T17:20:55.154Z,-4.88
2023-01-09T17:23:23.291Z,-4.94
2023-01-09T17:26:10.068Z,-5.02
2023-01-09T17:28:37.884Z,-5.09
2023-01-09T17:31:07.000Z,-5.04
2023-01-09T17:33:34.661Z,-5.11
2023-01-09T17:36:02.948Z,-5.23
2023-01-09T17:38:30.689Z,-5.19
2023-01-09T17:40:58.314Z,-5.25
2023-01-09T17:43:25.892Z,-5.44
2023-01-09T17:45:53.597Z,-5.54
2023-01-09T17:48:22.051Z,-5.70
2023-01-09T17:50:49.978Z,-5.71
2023-01-09T17:53:20.035Z,-5.72
2023-01-09T17:55:47.740Z,-5.91
2023-01-09T17:58:25.529Z,-5.96
2023-01-09T18:00:53.199Z,-5.97
2023-01-09T18:03:23.205Z,-6.08
2023-01-09T18:05:50.957Z,-6.13
2023-01-09T18:08:18.880Z,-6.17
2023-01-09T18:10:48.778Z,-6.11
2023-01-09T18:13:16.987Z,-6.19
2023-01-09T18:15:45.336Z,-6.27
2023-01-09T18:18:13.534Z,-6.19
2023-01-09T18:20:41.307Z,-6.28
2023-01-09T18:23:09.856Z,-6.32
2023-01-09T18:25:41.665Z,-6.45
2023-01-09T18:28:11.095Z,-6.48
2023-01-09T18:30:38.796Z,-6.46
2023-01-09T18:33:06.565Z,-6.52
2023-01-09T18:35:34.419Z,-6.50
2023-01-09T18:38:02.112Z,-6.65
2023-01-09T18:40:30.036Z,-6.62
2023-01-09T18:42:57.764Z,-6.62
2023-01-09T18:45:25.932Z,-6.74
2023-01-09T18:47:53.652Z,-6.75
2023-01-09T18:50:21.673Z,-6.82
2023-01-09T18:52:49.320Z,-6.78
2023-01-09T18:55:16.912Z,-6.78
2023-01-09T18:57:44.792Z,-6.75
2023-01-09T19:00:13.039Z,-6.77
2023-01-09T19:02:40.659Z,-6.90
2023-01-09T19:05:08.822Z,-6.88
2023-01-09T19:07:36.592Z,-6.80
2023-01-09T19:10:04.559Z,-6.76
2023-01-09T19:12:32.322Z,-6.91
2023-01-09T19:14:59.990Z,-6.77
2023-01-09T19:17:27.703Z,-6.82
2023-01-09T19:19:55.560Z,-6.86
2023-01-09T19:22:23.683Z,-6.92
2023-01-09T19:24:52.384Z,-6.94
2023-01-09T19:27:20.503Z,-6.90
2023-01-09T19:29:48.153Z,-6.90
2023-01-09T19:32:15.945Z,-7.03
2023-01-09T19:34:46.629Z,-6.96
2023-01-09T19:37:14.442Z,-7.02
2023-01-09T19:39:42.414Z,-6.98
2023-01-09T19:42:10.075Z,-6.98
2023-01-09T19:44:37.993Z,-7.04
2023-01-09T19:47:06.036Z,-7.07
2023-01-09T19:49:33.796Z,-7.02
2023-01-09T19:52:01.579Z,-7.06
2023-01-09T19:54:30.438Z,-7.03
2023-01-09T19:56:58.043Z,-7.06
2023-01-09T19:59:25.734Z,-7.06
2023-01-09T20:01:53.999Z,-7.03
2023-01-09T20:04:21.652Z,-7.06
2023-01-09T20:06:50.297Z,-7.14
2023-01-09T20:09:22.641Z,-7.09
2023-01-09T20:11:50.915Z,-7.06
2023-01-09T20:14:19.408Z,-7.13
2023-01-09T20:16:50.189Z,-7.14
2023-01-09T20:19:17.857Z,-7.18
2023-01-09T20:21:45.566Z,-7.24
2023-01-09T20:24:14.770Z,-7.24
2023-01-09T20:26:42.544Z,-7.20
2023-01-09T20:29:10.200Z,-7.11
2023-01-09T20:31:37.963Z,-7.16
2023-01-09T20:34:05.565Z,-7.18
2023-01-09T20:36:35.060Z,-7.20
2023-01-09T20:39:04.241Z,-7.27
2023-01-09T20:41:31.983Z,-7.20
2023-01-09T20:44:19.062Z,-7.25
2023-01-09T20:46:49.707Z,-7.34
2023-01-09T20:49:21.186Z,-7.33
2023-01-09T20:51:51.139Z,-7.30
2023-01-09T20:54:21.269Z,-7.48
2023-01-09T20:56:49.022Z,-7.41
2023-01-09T20:59:18.219Z,-7.37
2023-01-09T21:01:46.248Z,-7.37
2023-01-09T21:04:13.989Z,-7.34
2023-01-09T21:06:42.839Z,-7.39
2023-01-09T21:09:10.652Z,-7.36
2023-01-09T21:11:39.923Z,-7.44
2023-01-09T21:14:07.561Z,-7.37
2023-01-09T21:16:36.365Z,-7.45
2023-01-09T21:19:04.263Z,-7.44
2023-01-09T21:21:32.019Z,-7.39
2023-01-09T21:24:00.746Z,-7.43
2023-01-09T21:26:30.639Z,-7.35
2023-01-09T21:28:59.223Z,-7.51
2023-01-09T21:31:34.653Z,-7.50
2023-01-09T21:34:04.941Z,-7.60
2023-01-09T21:36:32.725Z,-7.62
2023-01-09T21:39:00.484Z,-7.64
2023-01-09T21:41:46.750Z,-7.71
2023-01-09T21:44:32.805Z,-7.78
2023-01-09T21:47:01.028Z,-7.79
2023-01-09T21:49:31.414Z,-7.74
2023-01-09T21:51:59.146Z,-7.78
2023-01-09T21:54:26.885Z,-7.81
2023-01-09T21:56:54.852Z,-7.81
2023-01-09T21:59:23.097Z,-7.89
2023-01-09T22:01:50.882Z,-7.92
2023-01-09T22:04:19.887Z,-7.85
2023-01-09T22:06:50.253Z,-7.88
2023-01-09T22:09:18.094Z,-7.87
2023-01-09T22:11:45.916Z,-8.02
2023-01-09T22:14:14.711Z,-7.91
2023-01-09T22:16:45.014Z,-8.12
2023-01-09T22:19:13.397Z,-8.01
2023-01-09T22:21:41.083Z,-8.09
2023-01-09T22:24:09.745Z,-8.00
2023-01-09T22:26:37.383Z,-8.05
2023-01-09T22:29:05.080Z,-7.98
2023-01-09T22:31:33.155Z,-8.09
2023-01-09T22:34:02.523Z,-8.04
2023-01-09T22:36:31.241Z,-8.18
2023-01-09T22:38:59.515Z,-8.16
2023-01-09T22:41:27.594Z,-8.09
2023-01-09T22:43:55.325Z,-8.16
2023-01-09T22:46:23.055Z,-8.20
2023-01-09T22:48:51.068Z,-8.18
2023-01-09T22:51:19.742Z,-8.18
2023-01-09T22:53:47.497Z,-8.13
2023-01-09T22:56:17.471Z,-8.15
2023-01-09T22:58:49.519Z,-8.16
2023-01-09T23:01:19.966Z,-8.20
2023-01-09T23:03:47.617Z,-8.18
2023-01-09T23:06:17.096Z,-8.12
2023-01-09T23:08:46.244Z,-8.22
2023-01-09T23:11:16.352Z,-8.21
2023-01-09T23:13:44.110Z,-8.16
2023-01-09T23:16:11.781Z,-8.28
2023-01-09T23:18:39.472Z,-8.25
2023-01-09T23:21:07.036Z,-8.25
2023-01-09T23:23:35.439Z,-8.16
2023-01-09T23:26:03.381Z,-8.15
2023-01-09T23:28:31.678Z,-8.26
2023-01-09T23:30:59.771Z,-8.30
2023-01-09T23:33:27.355Z,-8.22
2023-01-09T23:35:55.101Z,-8.19
2023-01-09T23:38:22.834Z,-8.19
2023-01-09T23:40:56.027Z,-8.16
2023-01-09T23:43:23.568Z,-8.21
2023-01-09T23:45:51.765Z,-8.20
2023-01-09T23:48:19.507Z,-8.18
2023-01-09T23:50:51.529Z,-8.11
2023-01-09T23:53:19.867Z,-8.15
2023-01-09T23:55:47.939Z,-8.17
2023-01-09T23:58:15.639Z,-8.21
